sensor_id;sensor_type;location;lat;lon;timestamp;temperature;humidity
3408;DHT22;1717;50.240;8.406;2023-08-07T00:02:00;14.00;99.90
3408;DHT22;1717;50.240;8.406;2023-08-07T00:04:27;13.90;99.90
3408;DHT22;1717;50.240;8.406;2023-08-07T00:06:54;13.90;99.90
3408;DHT22;1717;50.240;8.406;2023-08-07T00:09:22;13.90;99.90
3408;DHT22;1717;50.240;8.406;2023-08-07T00:11:49;13.90;99.90
3408;DHT22;1717;50.240;8.406;2023-08-07T00:14:16;14.00;99.90
3408;DHT22;1717;50.240;8.406;2023-08-07T00:16:43;14.00;99.90
3408;DHT22;1717;50.240;8.406;2023-08-07T00:19:10;13.90;99.90
3408;DHT22;1717;50.240;8.406;2023-08-07T00:21:37;13.90;99.90
3408;DHT22;1717;50.240;8.406;2023-08-07T00:24:04;13.80;99.90
3408;DHT22;1717;50.240;8.406;2023-08-07T00:26:33;13.80;99.90
3408;DHT22;1717;50.240;8.406;2023-08-07T00:28:59;13.80;99.90
3408;DHT22;1717;50.240;8.406;2023-08-07T00:31:26;13.80;99.90
3408;DHT22;1717;50.240;8.406;2023-08-07T00:33:56;13.80;99.90
3408;DHT22;1717;50.240;8.406;2023-08-07T00:36:23;13.80;99.90
3408;DHT22;1717;50.240;8.406;2023-08-07T00:38:51;13.70;99.90
3408;DHT22;1717;50.240;8.406;2023-08-07T00:41:17;13.80;99.90
3408;DHT22;1717;50.240;8.406;2023-08-07T00:43:46;13.80;99.90
3408;DHT22;1717;50.240;8.406;2023-08-07T00:46:12;13.70;99.90
3408;DHT22;1717;50.240;8.406;2023-08-07T00:48:40;13.80;99.90
3408;DHT22;1717;50.240;8.406;2023-08-07T00:51:08;13.80;99.90
3408;DHT22;1717;50.240;8.406;2023-08-07T00:53:37;13.80;99.90
3408;DHT22;1717;50.240;8.406;2023-08-07T00:56:05;13.80;99.90
3408;DHT22;1717;50.240;8.406;2023-08-07T00:58:32;13.80;99.90
3408;DHT22;1717;50.240;8.406;2023-08-07T01:01:01;13.80;99.90
3408;DHT22;1717;50.240;8.406;2023-08-07T01:03:28;13.80;99.90
3408;DHT22;1717;50.240;8.406;2023-08-07T01:05:54;13.70;99.90
3408;DHT22;1717;50.240;8.406;2023-08-07T01:08:21;13.80;99.90
3408;DHT22;1717;50.240;8.406;2023-08-07T01:11:02;13.80;99.90
3408;DHT22;1717;50.240;8.406;2023-08-07T01:13:37;13.80;99.90
3408;DHT22;1717;50.240;8.406;2023-08-07T01:16:16;13.70;99.90
3408;DHT22;1717;50.240;8.406;2023-08-07T01:18:45;13.70;99.90
3408;DHT22;1717;50.240;8.406;2023-08-07T01:21:17;13.60;99.90
3408;DHT22;1717;50.240;8.406;2023-08-07T01:23:46;13.60;99.90
3408;DHT22;1717;50.240;8.406;2023-08-07T01:26:13;13.60;99.90
3408;DHT22;1717;50.240;8.406;2023-08-07T01:28:45;13.60;99.90
3408;DHT22;1717;50.240;8.406;2023-08-07T01:31:14;13.70;99.90
3408;DHT22;1717;50.240;8.406;2023-08-07T01:33:47;13.70;99.90
3408;DHT22;1717;50.240;8.406;2023-08-07T01:36:16;13.80;99.90
3408;DHT22;1717;50.240;8.406;2023-08-07T01:38:43;13.70;99.90
3408;DHT22;1717;50.240;8.406;2023-08-07T01:41:12;13.80;99.90
3408;DHT22;1717;50.240;8.406;2023-08-07T01:43:40;13.80;99.90
3408;DHT22;1717;50.240;8.406;2023-08-07T01:46:07;13.70;99.90
3408;DHT22;1717;50.240;8.406;2023-08-07T01:48:33;13.70;99.90
3408;DHT22;1717;50.240;8.406;2023-08-07T01:51:00;13.80;99.90
3408;DHT22;1717;50.240;8.406;2023-08-07T01:53:27;13.70;99.90
3408;DHT22;1717;50.240;8.406;2023-08-07T01:55:54;13.80;99.90
3408;DHT22;1717;50.240;8.406;2023-08-07T01:58:22;13.80;99.90
3408;DHT22;1717;50.240;8.406;2023-08-07T02:00:49;13.80;99.90
3408;DHT22;1717;50.240;8.406;2023-08-07T02:03:15;13.90;99.90
3408;DHT22;1717;50.240;8.406;2023-08-07T02:05:45;13.90;99.90
3408;DHT22;1717;50.240;8.406;2023-08-07T02:08:11;13.90;99.90
3408;DHT22;1717;50.240;8.406;2023-08-07T02:10:38;13.90;99.90
3408;DHT22;1717;50.240;8.406;2023-08-07T02:13:05;13.90;99.90
3408;DHT22;1717;50.240;8.406;2023-08-07T02:15:33;13.90;99.90
3408;DHT22;1717;50.240;8.406;2023-08-07T02:18:00;13.90;99.90
3408;DHT22;1717;50.240;8.406;2023-08-07T02:20:27;13.80;99.90
3408;DHT22;1717;50.240;8.406;2023-08-07T02:22:53;13.80;99.90
3408;DHT22;1717;50.240;8.406;2023-08-07T02:25:20;13.80;99.90
3408;DHT22;1717;50.240;8.406;2023-08-07T02:27:47;13.80;99.90
3408;DHT22;1717;50.240;8.406;2023-08-07T02:30:14;13.80;99.90
3408;DHT22;1717;50.240;8.406;2023-08-07T02:32:42;13.70;99.90
3408;DHT22;1717;50.240;8.406;2023-08-07T02:35:10;13.70;99.90
3408;DHT22;1717;50.240;8.406;2023-08-07T02:37:37;13.70;99.90
3408;DHT22;1717;50.240;8.406;2023-08-07T02:40:05;13.70;99.90
3408;DHT22;1717;50.240;8.406;2023-08-07T02:42:32;13.70;99.90
3408;DHT22;1717;50.240;8.406;2023-08-07T02:44:58;13.70;99.90
3408;DHT22;1717;50.240;8.406;2023-08-07T02:47:25;13.70;99.90
3408;DHT22;1717;50.240;8.406;2023-08-07T02:49:53;13.70;99.90
3408;DHT22;1717;50.240;8.406;2023-08-07T02:52:20;13.70;99.90
3408;DHT22;1717;50.240;8.406;2023-08-07T02:54:47;13.70;99.90
3408;DHT22;1717;50.240;8.406;2023-08-07T02:57:13;13.70;99.90
3408;DHT22;1717;50.240;8.406;2023-08-07T02:59:40;13.60;99.90
3408;DHT22;1717;50.240;8.406;2023-08-07T03:02:07;13.60;99.90
3408;DHT22;1717;50.240;8.406;2023-08-07T03:04:34;13.60;99.90
3408;DHT22;1717;50.240;8.406;2023-08-07T03:07:02;13.60;99.90
3408;DHT22;1717;50.240;8.406;2023-08-07T03:09:29;13.60;99.90
3408;DHT22;1717;50.240;8.406;2023-08-07T03:11:56;13.60;99.90
3408;DHT22;1717;50.240;8.406;2023-08-07T03:14:28;13.60;99.90
3408;DHT22;1717;50.240;8.406;2023-08-07T03:16:55;13.60;99.90
3408;DHT22;1717;50.240;8.406;2023-08-07T03:19:22;13.50;99.90
3408;DHT22;1717;50.240;8.406;2023-08-07T03:21:48;13.50;99.90
3408;DHT22;1717;50.240;8.406;2023-08-07T03:24:17;13.50;99.90
3408;DHT22;1717;50.240;8.406;2023-08-07T03:26:43;13.50;99.90
3408;DHT22;1717;50.240;8.406;2023-08-07T03:29:12;13.50;99.90
3408;DHT22;1717;50.240;8.406;2023-08-07T03:31:39;13.40;99.90
3408;DHT22;1717;50.240;8.406;2023-08-07T03:34:06;13.50;99.90
3408;DHT22;1717;50.240;8.406;2023-08-07T03:36:33;13.70;99.90
3408;DHT22;1717;50.240;8.406;2023-08-07T03:39:00;13.50;99.90
3408;DHT22;1717;50.240;8.406;2023-08-07T03:41:28;13.50;99.90
3408;DHT22;1717;50.240;8.406;2023-08-07T03:43:54;13.50;99.90
3408;DHT22;1717;50.240;8.406;2023-08-07T03:46:21;13.50;99.90
3408;DHT22;1717;50.240;8.406;2023-08-07T03:48:48;13.40;99.90
3408;DHT22;1717;50.240;8.406;2023-08-07T03:51:15;13.40;99.90
3408;DHT22;1717;50.240;8.406;2023-08-07T03:53:42;13.40;99.90
3408;DHT22;1717;50.240;8.406;2023-08-07T03:56:09;13.30;99.90
3408;DHT22;1717;50.240;8.406;2023-08-07T03:58:37;13.20;99.90
3408;DHT22;1717;50.240;8.406;2023-08-07T04:01:04;13.20;99.90
3408;DHT22;1717;50.240;8.406;2023-08-07T04:03:31;13.30;99.90
3408;DHT22;1717;50.240;8.406;2023-08-07T04:05:58;13.20;99.90
3408;DHT22;1717;50.240;8.406;2023-08-07T04:08:25;13.30;99.90
3408;DHT22;1717;50.240;8.406;2023-08-07T04:10:59;13.30;99.90
3408;DHT22;1717;50.240;8.406;2023-08-07T04:13:27;13.30;99.90
3408;DHT22;1717;50.240;8.406;2023-08-07T04:15:56;13.30;99.90
3408;DHT22;1717;50.240;8.406;2023-08-07T04:18:23;13.30;99.90
3408;DHT22;1717;50.240;8.406;2023-08-07T04:20:50;13.40;99.90
3408;DHT22;1717;50.240;8.406;2023-08-07T04:23:17;13.40;99.90
3408;DHT22;1717;50.240;8.406;2023-08-07T04:25:45;13.30;99.90
3408;DHT22;1717;50.240;8.406;2023-08-07T04:28:12;13.40;99.90
3408;DHT22;1717;50.240;8.406;2023-08-07T04:30:39;13.40;99.90
3408;DHT22;1717;50.240;8.406;2023-08-07T04:33:07;13.30;99.90
3408;DHT22;1717;50.240;8.406;2023-08-07T04:35:34;13.30;99.90
3408;DHT22;1717;50.240;8.406;2023-08-07T04:38:01;13.30;99.90
3408;DHT22;1717;50.240;8.406;2023-08-07T04:40:28;13.20;99.90
3408;DHT22;1717;50.240;8.406;2023-08-07T04:42:56;13.20;99.90
3408;DHT22;1717;50.240;8.406;2023-08-07T04:45:23;13.20;99.90
3408;DHT22;1717;50.240;8.406;2023-08-07T04:47:50;13.20;99.90
3408;DHT22;1717;50.240;8.406;2023-08-07T04:50:18;13.20;99.90
3408;DHT22;1717;50.240;8.406;2023-08-07T04:52:45;13.20;99.90
3408;DHT22;1717;50.240;8.406;2023-08-07T04:55:12;13.30;99.90
3408;DHT22;1717;50.240;8.406;2023-08-07T04:57:38;13.30;99.90
3408;DHT22;1717;50.240;8.406;2023-08-07T05:00:06;13.30;99.90
3408;DHT22;1717;50.240;8.406;2023-08-07T05:02:34;13.40;99.90
3408;DHT22;1717;50.240;8.406;2023-08-07T05:05:01;13.40;99.90
3408;DHT22;1717;50.240;8.406;2023-08-07T05:07:32;13.40;99.90
3408;DHT22;1717;50.240;8.406;2023-08-07T05:10:00;13.40;99.90
3408;DHT22;1717;50.240;8.406;2023-08-07T05:12:27;13.40;99.90
3408;DHT22;1717;50.240;8.406;2023-08-07T05:14:54;13.40;99.90
3408;DHT22;1717;50.240;8.406;2023-08-07T05:17:21;13.40;99.90
3408;DHT22;1717;50.240;8.406;2023-08-07T05:19:48;13.50;99.90
3408;DHT22;1717;50.240;8.406;2023-08-07T05:22:15;13.40;99.90
3408;DHT22;1717;50.240;8.406;2023-08-07T05:24:43;13.50;99.90
3408;DHT22;1717;50.240;8.406;2023-08-07T05:27:11;13.50;99.90
3408;DHT22;1717;50.240;8.406;2023-08-07T05:29:38;13.50;99.90
3408;DHT22;1717;50.240;8.406;2023-08-07T05:32:09;13.50;99.90
3408;DHT22;1717;50.240;8.406;2023-08-07T05:34:36;13.50;99.90
3408;DHT22;1717;50.240;8.406;2023-08-07T05:37:03;13.50;99.90
3408;DHT22;1717;50.240;8.406;2023-08-07T05:39:30;13.50;99.90
3408;DHT22;1717;50.240;8.406;2023-08-07T05:41:59;13.50;99.90
3408;DHT22;1717;50.240;8.406;2023-08-07T05:44:25;13.50;99.90
3408;DHT22;1717;50.240;8.406;2023-08-07T05:46:52;13.50;99.90
3408;DHT22;1717;50.240;8.406;2023-08-07T05:49:20;13.40;99.90
3408;DHT22;1717;50.240;8.406;2023-08-07T05:51:47;13.40;99.90
3408;DHT22;1717;50.240;8.406;2023-08-07T05:54:13;13.50;99.90
3408;DHT22;1717;50.240;8.406;2023-08-07T05:56:41;13.50;99.90
3408;DHT22;1717;50.240;8.406;2023-08-07T05:59:09;13.50;99.90
3408;DHT22;1717;50.240;8.406;2023-08-07T06:01:36;13.60;99.90
3408;DHT22;1717;50.240;8.406;2023-08-07T06:04:03;13.50;99.90
3408;DHT22;1717;50.240;8.406;2023-08-07T06:06:30;13.50;99.90
3408;DHT22;1717;50.240;8.406;2023-08-07T06:09:00;13.60;99.90
3408;DHT22;1717;50.240;8.406;2023-08-07T06:11:27;13.60;99.90
3408;DHT22;1717;50.240;8.406;2023-08-07T06:13:53;13.50;99.90
3408;DHT22;1717;50.240;8.406;2023-08-07T06:16:22;13.50;99.90
3408;DHT22;1717;50.240;8.406;2023-08-07T06:18:48;13.50;99.90
3408;DHT22;1717;50.240;8.406;2023-08-07T06:21:15;13.50;99.90
3408;DHT22;1717;50.240;8.406;2023-08-07T06:23:42;13.50;99.90
3408;DHT22;1717;50.240;8.406;2023-08-07T06:26:09;13.40;99.90
3408;DHT22;1717;50.240;8.406;2023-08-07T06:28:36;13.40;99.90
3408;DHT22;1717;50.240;8.406;2023-08-07T06:31:03;13.40;99.90
3408;DHT22;1717;50.240;8.406;2023-08-07T06:33:32;13.30;99.90
3408;DHT22;1717;50.240;8.406;2023-08-07T06:36:00;13.30;99.90
3408;DHT22;1717;50.240;8.406;2023-08-07T06:38:27;13.30;99.90
3408;DHT22;1717;50.240;8.406;2023-08-07T06:40:54;13.30;99.90
3408;DHT22;1717;50.240;8.406;2023-08-07T06:43:21;13.30;99.90
3408;DHT22;1717;50.240;8.406;2023-08-07T06:45:49;13.40;99.90
3408;DHT22;1717;50.240;8.406;2023-08-07T06:48:15;13.30;99.90
3408;DHT22;1717;50.240;8.406;2023-08-07T06:50:44;13.30;99.90
3408;DHT22;1717;50.240;8.406;2023-08-07T06:53:10;13.40;99.90
3408;DHT22;1717;50.240;8.406;2023-08-07T06:55:37;13.40;99.90
3408;DHT22;1717;50.240;8.406;2023-08-07T06:58:04;13.30;99.90
3408;DHT22;1717;50.240;8.406;2023-08-07T07:00:31;13.30;99.90
3408;DHT22;1717;50.240;8.406;2023-08-07T07:02:59;13.20;99.90
3408;DHT22;1717;50.240;8.406;2023-08-07T07:05:26;13.40;99.90
3408;DHT22;1717;50.240;8.406;2023-08-07T07:07:55;13.40;99.90
3408;DHT22;1717;50.240;8.406;2023-08-07T07:10:21;13.40;99.90
3408;DHT22;1717;50.240;8.406;2023-08-07T07:12:48;13.40;99.90
3408;DHT22;1717;50.240;8.406;2023-08-07T07:15:15;13.40;99.90
3408;DHT22;1717;50.240;8.406;2023-08-07T07:17:42;13.40;99.90
3408;DHT22;1717;50.240;8.406;2023-08-07T07:20:09;13.50;99.90
3408;DHT22;1717;50.240;8.406;2023-08-07T07:22:37;13.50;99.90
3408;DHT22;1717;50.240;8.406;2023-08-07T07:25:06;13.40;99.90
3408;DHT22;1717;50.240;8.406;2023-08-07T07:27:33;13.40;99.90
3408;DHT22;1717;50.240;8.406;2023-08-07T07:29:59;13.50;99.90
3408;DHT22;1717;50.240;8.406;2023-08-07T07:32:26;13.50;99.90
3408;DHT22;1717;50.240;8.406;2023-08-07T07:34:53;13.50;99.90
3408;DHT22;1717;50.240;8.406;2023-08-07T07:37:20;13.50;99.90
3408;DHT22;1717;50.240;8.406;2023-08-07T07:39:46;13.50;99.90
3408;DHT22;1717;50.240;8.406;2023-08-07T07:42:15;13.50;99.90
3408;DHT22;1717;50.240;8.406;2023-08-07T07:44:41;13.40;99.90
3408;DHT22;1717;50.240;8.406;2023-08-07T07:47:08;13.40;99.90
3408;DHT22;1717;50.240;8.406;2023-08-07T07:49:35;13.50;99.90
3408;DHT22;1717;50.240;8.406;2023-08-07T07:52:02;13.50;99.90
3408;DHT22;1717;50.240;8.406;2023-08-07T07:54:29;13.50;99.90
3408;DHT22;1717;50.240;8.406;2023-08-07T07:56:56;13.50;99.90
3408;DHT22;1717;50.240;8.406;2023-08-07T07:59:24;13.50;99.90
3408;DHT22;1717;50.240;8.406;2023-08-07T08:01:51;13.50;99.90
3408;DHT22;1717;50.240;8.406;2023-08-07T08:04:18;13.50;99.90
3408;DHT22;1717;50.240;8.406;2023-08-07T08:06:45;13.50;99.90
3408;DHT22;1717;50.240;8.406;2023-08-07T08:09:13;13.50;99.90
3408;DHT22;1717;50.240;8.406;2023-08-07T08:11:41;13.50;99.90
3408;DHT22;1717;50.240;8.406;2023-08-07T08:14:07;13.50;99.90
3408;DHT22;1717;50.240;8.406;2023-08-07T08:16:36;13.50;99.90
3408;DHT22;1717;50.240;8.406;2023-08-07T08:19:02;13.40;99.90
3408;DHT22;1717;50.240;8.406;2023-08-07T08:21:29;13.50;99.90
3408;DHT22;1717;50.240;8.406;2023-08-07T08:23:57;13.50;99.90
3408;DHT22;1717;50.240;8.406;2023-08-07T08:26:23;13.50;99.90
3408;DHT22;1717;50.240;8.406;2023-08-07T08:28:50;13.50;99.90
3408;DHT22;1717;50.240;8.406;2023-08-07T08:31:17;13.50;99.90
3408;DHT22;1717;50.240;8.406;2023-08-07T08:33:48;13.50;99.90
3408;DHT22;1717;50.240;8.406;2023-08-07T08:36:15;13.60;99.90
3408;DHT22;1717;50.240;8.406;2023-08-07T08:38:41;13.60;99.90
3408;DHT22;1717;50.240;8.406;2023-08-07T08:41:09;13.60;99.90
3408;DHT22;1717;50.240;8.406;2023-08-07T08:43:38;13.60;99.90
3408;DHT22;1717;50.240;8.406;2023-08-07T08:46:05;13.60;99.90
3408;DHT22;1717;50.240;8.406;2023-08-07T08:48:35;13.70;99.90
3408;DHT22;1717;50.240;8.406;2023-08-07T08:51:06;13.60;99.90
3408;DHT22;1717;50.240;8.406;2023-08-07T08:53:35;13.70;99.90
3408;DHT22;1717;50.240;8.406;2023-08-07T08:56:02;13.80;99.90
3408;DHT22;1717;50.240;8.406;2023-08-07T08:58:31;13.70;99.90
3408;DHT22;1717;50.240;8.406;2023-08-07T09:00:58;13.70;99.90
3408;DHT22;1717;50.240;8.406;2023-08-07T09:03:26;13.70;99.90
3408;DHT22;1717;50.240;8.406;2023-08-07T09:05:54;13.70;99.90
3408;DHT22;1717;50.240;8.406;2023-08-07T09:08:22;13.70;99.90
3408;DHT22;1717;50.240;8.406;2023-08-07T09:10:52;13.70;99.90
3408;DHT22;1717;50.240;8.406;2023-08-07T09:13:22;13.70;99.90
3408;DHT22;1717;50.240;8.406;2023-08-07T09:15:50;13.70;99.90
3408;DHT22;1717;50.240;8.406;2023-08-07T09:18:18;13.70;99.90
3408;DHT22;1717;50.240;8.406;2023-08-07T09:20:46;13.70;99.90
3408;DHT22;1717;50.240;8.406;2023-08-07T09:23:15;13.70;99.90
3408;DHT22;1717;50.240;8.406;2023-08-07T09:25:44;13.70;99.90
3408;DHT22;1717;50.240;8.406;2023-08-07T09:28:11;13.70;99.90
3408;DHT22;1717;50.240;8.406;2023-08-07T09:30:39;13.60;99.90
3408;DHT22;1717;50.240;8.406;2023-08-07T09:33:07;13.70;99.90
3408;DHT22;1717;50.240;8.406;2023-08-07T09:35:34;13.70;99.90
3408;DHT22;1717;50.240;8.406;2023-08-07T09:38:01;13.70;99.90
3408;DHT22;1717;50.240;8.406;2023-08-07T09:40:29;13.60;99.90
3408;DHT22;1717;50.240;8.406;2023-08-07T09:42:57;13.60;99.90
3408;DHT22;1717;50.240;8.406;2023-08-07T09:45:25;13.60;99.90
3408;DHT22;1717;50.240;8.406;2023-08-07T09:47:57;13.60;99.90
3408;DHT22;1717;50.240;8.406;2023-08-07T09:50:24;13.60;99.90
3408;DHT22;1717;50.240;8.406;2023-08-07T09:52:52;13.60;99.90
3408;DHT22;1717;50.240;8.406;2023-08-07T09:55:19;13.60;99.90
3408;DHT22;1717;50.240;8.406;2023-08-07T09:57:46;13.60;99.90
3408;DHT22;1717;50.240;8.406;2023-08-07T10:00:15;13.70;99.90
3408;DHT22;1717;50.240;8.406;2023-08-07T10:02:45;13.70;99.90
3408;DHT22;1717;50.240;8.406;2023-08-07T10:05:16;13.70;99.90
3408;DHT22;1717;50.240;8.406;2023-08-07T10:07:43;13.70;99.90
3408;DHT22;1717;50.240;8.406;2023-08-07T10:10:10;13.60;99.90
3408;DHT22;1717;50.240;8.406;2023-08-07T10:12:37;13.70;99.90
3408;DHT22;1717;50.240;8.406;2023-08-07T10:15:05;13.70;99.90
3408;DHT22;1717;50.240;8.406;2023-08-07T10:17:34;13.70;99.90
3408;DHT22;1717;50.240;8.406;2023-08-07T10:20:01;13.70;99.90
3408;DHT22;1717;50.240;8.406;2023-08-07T10:22:30;13.70;99.90
3408;DHT22;1717;50.240;8.406;2023-08-07T10:25:00;13.70;99.90
3408;DHT22;1717;50.240;8.406;2023-08-07T10:27:29;13.70;99.90
3408;DHT22;1717;50.240;8.406;2023-08-07T10:29:58;13.70;99.90
3408;DHT22;1717;50.240;8.406;2023-08-07T10:32:26;13.70;99.90
3408;DHT22;1717;50.240;8.406;2023-08-07T10:34:55;13.70;99.90
3408;DHT22;1717;50.240;8.406;2023-08-07T10:37:41;13.60;99.90
3408;DHT22;1717;50.240;8.406;2023-08-07T10:40:09;13.70;99.90
3408;DHT22;1717;50.240;8.406;2023-08-07T10:42:56;13.70;99.90
3408;DHT22;1717;50.240;8.406;2023-08-07T10:45:24;13.70;99.90
3408;DHT22;1717;50.240;8.406;2023-08-07T10:48:06;13.80;99.90
3408;DHT22;1717;50.240;8.406;2023-08-07T10:50:49;13.70;99.90
3408;DHT22;1717;50.240;8.406;2023-08-07T10:53:19;13.70;99.90
3408;DHT22;1717;50.240;8.406;2023-08-07T10:55:47;13.70;99.90
3408;DHT22;1717;50.240;8.406;2023-08-07T10:58:24;13.70;99.90
3408;DHT22;1717;50.240;8.406;2023-08-07T11:00:52;13.80;99.90
3408;DHT22;1717;50.240;8.406;2023-08-07T11:03:28;13.80;99.90
3408;DHT22;1717;50.240;8.406;2023-08-07T11:05:58;13.80;99.90
3408;DHT22;1717;50.240;8.406;2023-08-07T11:08:25;13.80;99.90
3408;DHT22;1717;50.240;8.406;2023-08-07T11:10:53;13.80;99.90
3408;DHT22;1717;50.240;8.406;2023-08-07T11:13:20;13.80;99.90
3408;DHT22;1717;50.240;8.406;2023-08-07T11:15:47;13.90;99.90
3408;DHT22;1717;50.240;8.406;2023-08-07T11:18:14;13.90;99.90
3408;DHT22;1717;50.240;8.406;2023-08-07T11:20:42;13.90;99.90
3408;DHT22;1717;50.240;8.406;2023-08-07T11:23:11;14.00;99.90
3408;DHT22;1717;50.240;8.406;2023-08-07T11:25:38;14.00;99.90
3408;DHT22;1717;50.240;8.406;2023-08-07T11:28:05;14.10;99.90
3408;DHT22;1717;50.240;8.406;2023-08-07T11:30:34;14.10;99.90
3408;DHT22;1717;50.240;8.406;2023-08-07T11:33:01;14.10;99.90
3408;DHT22;1717;50.240;8.406;2023-08-07T11:35:27;14.20;99.90
3408;DHT22;1717;50.240;8.406;2023-08-07T11:37:55;14.20;99.90
3408;DHT22;1717;50.240;8.406;2023-08-07T11:40:23;14.20;99.90
3408;DHT22;1717;50.240;8.406;2023-08-07T11:42:50;14.20;99.90
3408;DHT22;1717;50.240;8.406;2023-08-07T11:45:17;14.30;99.90
3408;DHT22;1717;50.240;8.406;2023-08-07T11:47:44;14.30;99.90
3408;DHT22;1717;50.240;8.406;2023-08-07T11:50:11;14.40;99.90
3408;DHT22;1717;50.240;8.406;2023-08-07T11:52:38;14.40;99.90
3408;DHT22;1717;50.240;8.406;2023-08-07T11:55:06;14.50;99.90
3408;DHT22;1717;50.240;8.406;2023-08-07T11:57:38;14.50;99.90
3408;DHT22;1717;50.240;8.406;2023-08-07T12:00:07;14.50;99.90
3408;DHT22;1717;50.240;8.406;2023-08-07T12:02:41;14.60;99.90
3408;DHT22;1717;50.240;8.406;2023-08-07T12:05:09;14.60;99.90
3408;DHT22;1717;50.240;8.406;2023-08-07T12:07:38;14.60;99.90
3408;DHT22;1717;50.240;8.406;2023-08-07T12:10:07;14.70;99.90
3408;DHT22;1717;50.240;8.406;2023-08-07T12:12:37;14.80;99.90
3408;DHT22;1717;50.240;8.406;2023-08-07T12:15:07;14.80;99.90
3408;DHT22;1717;50.240;8.406;2023-08-07T12:17:35;14.90;99.90
3408;DHT22;1717;50.240;8.406;2023-08-07T12:20:04;15.00;99.90
3408;DHT22;1717;50.240;8.406;2023-08-07T12:22:33;15.10;99.90
3408;DHT22;1717;50.240;8.406;2023-08-07T12:25:00;15.10;99.90
3408;DHT22;1717;50.240;8.406;2023-08-07T12:27:27;15.20;99.90
3408;DHT22;1717;50.240;8.406;2023-08-07T12:29:55;15.30;99.90
3408;DHT22;1717;50.240;8.406;2023-08-07T12:32:22;15.40;99.90
3408;DHT22;1717;50.240;8.406;2023-08-07T12:34:49;15.50;99.90
3408;DHT22;1717;50.240;8.406;2023-08-07T12:37:16;15.60;99.90
3408;DHT22;1717;50.240;8.406;2023-08-07T12:39:43;15.70;99.90
3408;DHT22;1717;50.240;8.406;2023-08-07T12:42:10;15.80;99.90
3408;DHT22;1717;50.240;8.406;2023-08-07T12:44:37;15.90;99.90
3408;DHT22;1717;50.240;8.406;2023-08-07T12:47:05;16.00;99.90
3408;DHT22;1717;50.240;8.406;2023-08-07T12:49:32;16.10;99.90
3408;DHT22;1717;50.240;8.406;2023-08-07T12:51:59;16.10;99.90
3408;DHT22;1717;50.240;8.406;2023-08-07T12:54:26;16.20;99.90
3408;DHT22;1717;50.240;8.406;2023-08-07T12:56:53;16.30;99.90
3408;DHT22;1717;50.240;8.406;2023-08-07T12:59:20;16.30;99.90
3408;DHT22;1717;50.240;8.406;2023-08-07T13:01:47;16.30;99.90
3408;DHT22;1717;50.240;8.406;2023-08-07T13:04:16;16.30;99.90
3408;DHT22;1717;50.240;8.406;2023-08-07T13:06:42;16.40;99.90
3408;DHT22;1717;50.240;8.406;2023-08-07T13:09:09;16.50;99.90
3408;DHT22;1717;50.240;8.406;2023-08-07T13:11:36;16.50;99.90
3408;DHT22;1717;50.240;8.406;2023-08-07T13:14:03;16.70;99.90
3408;DHT22;1717;50.240;8.406;2023-08-07T13:16:31;16.80;99.90
3408;DHT22;1717;50.240;8.406;2023-08-07T13:18:58;16.90;99.90
3408;DHT22;1717;50.240;8.406;2023-08-07T13:21:26;17.00;99.90
3408;DHT22;1717;50.240;8.406;2023-08-07T13:23:53;17.10;99.90
3408;DHT22;1717;50.240;8.406;2023-08-07T13:26:20;17.10;99.90
3408;DHT22;1717;50.240;8.406;2023-08-07T13:28:47;17.30;99.90
3408;DHT22;1717;50.240;8.406;2023-08-07T13:31:14;17.40;99.90
3408;DHT22;1717;50.240;8.406;2023-08-07T13:33:41;17.50;99.90
3408;DHT22;1717;50.240;8.406;2023-08-07T13:36:08;17.50;99.90
3408;DHT22;1717;50.240;8.406;2023-08-07T13:38:36;17.70;99.90
3408;DHT22;1717;50.240;8.406;2023-08-07T13:41:03;17.80;99.90
3408;DHT22;1717;50.240;8.406;2023-08-07T13:43:30;17.90;99.90
3408;DHT22;1717;50.240;8.406;2023-08-07T13:45:57;18.10;99.90
3408;DHT22;1717;50.240;8.406;2023-08-07T13:48:24;18.20;99.90
3408;DHT22;1717;50.240;8.406;2023-08-07T13:50:52;18.20;99.90
3408;DHT22;1717;50.240;8.406;2023-08-07T13:53:19;18.30;99.90
3408;DHT22;1717;50.240;8.406;2023-08-07T13:55:48;18.40;99.90
3408;DHT22;1717;50.240;8.406;2023-08-07T13:58:15;18.40;99.90
3408;DHT22;1717;50.240;8.406;2023-08-07T14:00:42;18.50;99.90
3408;DHT22;1717;50.240;8.406;2023-08-07T14:03:09;18.50;99.90
3408;DHT22;1717;50.240;8.406;2023-08-07T14:05:38;18.50;99.90
3408;DHT22;1717;50.240;8.406;2023-08-07T14:08:05;18.60;99.90
3408;DHT22;1717;50.240;8.406;2023-08-07T14:10:31;18.60;99.90
3408;DHT22;1717;50.240;8.406;2023-08-07T14:13:00;18.70;99.90
3408;DHT22;1717;50.240;8.406;2023-08-07T14:15:27;18.70;99.90
3408;DHT22;1717;50.240;8.406;2023-08-07T14:17:54;18.70;99.90
3408;DHT22;1717;50.240;8.406;2023-08-07T14:20:23;18.80;99.90
3408;DHT22;1717;50.240;8.406;2023-08-07T14:22:50;18.80;99.90
3408;DHT22;1717;50.240;8.406;2023-08-07T14:25:17;18.80;99.90
3408;DHT22;1717;50.240;8.406;2023-08-07T14:27:44;18.80;99.90
3408;DHT22;1717;50.240;8.406;2023-08-07T14:30:13;18.80;99.90
3408;DHT22;1717;50.240;8.406;2023-08-07T14:32:40;18.80;99.90
3408;DHT22;1717;50.240;8.406;2023-08-07T14:35:08;18.80;99.90
3408;DHT22;1717;50.240;8.406;2023-08-07T14:37:35;18.80;99.90
3408;DHT22;1717;50.240;8.406;2023-08-07T14:40:03;18.80;99.90
3408;DHT22;1717;50.240;8.406;2023-08-07T14:42:30;18.90;99.90
3408;DHT22;1717;50.240;8.406;2023-08-07T14:44:56;18.90;99.90
3408;DHT22;1717;50.240;8.406;2023-08-07T14:47:25;19.00;99.90
3408;DHT22;1717;50.240;8.406;2023-08-07T14:49:52;19.00;99.90
3408;DHT22;1717;50.240;8.406;2023-08-07T14:52:19;19.00;99.90
3408;DHT22;1717;50.240;8.406;2023-08-07T14:54:46;19.10;99.90
3408;DHT22;1717;50.240;8.406;2023-08-07T14:57:12;19.10;99.90
3408;DHT22;1717;50.240;8.406;2023-08-07T14:59:39;19.10;99.90
3408;DHT22;1717;50.240;8.406;2023-08-07T15:02:06;19.00;99.90
3408;DHT22;1717;50.240;8.406;2023-08-07T15:04:35;19.00;99.90
3408;DHT22;1717;50.240;8.406;2023-08-07T15:07:02;19.00;99.90
3408;DHT22;1717;50.240;8.406;2023-08-07T15:09:29;19.00;99.90
3408;DHT22;1717;50.240;8.406;2023-08-07T15:11:56;18.90;99.90
3408;DHT22;1717;50.240;8.406;2023-08-07T15:14:23;18.90;99.90
3408;DHT22;1717;50.240;8.406;2023-08-07T15:16:50;18.90;99.90
3408;DHT22;1717;50.240;8.406;2023-08-07T15:19:16;18.90;99.90
3408;DHT22;1717;50.240;8.406;2023-08-07T15:21:45;18.80;99.90
3408;DHT22;1717;50.240;8.406;2023-08-07T15:24:11;18.80;99.90
3408;DHT22;1717;50.240;8.406;2023-08-07T15:26:38;18.70;99.90
3408;DHT22;1717;50.240;8.406;2023-08-07T15:29:05;18.70;99.90
3408;DHT22;1717;50.240;8.406;2023-08-07T15:31:32;18.70;99.90
3408;DHT22;1717;50.240;8.406;2023-08-07T15:33:59;18.70;99.90
3408;DHT22;1717;50.240;8.406;2023-08-07T15:36:26;18.70;99.90
3408;DHT22;1717;50.240;8.406;2023-08-07T15:38:54;18.70;99.90
3408;DHT22;1717;50.240;8.406;2023-08-07T15:41:22;18.80;99.90
3408;DHT22;1717;50.240;8.406;2023-08-07T15:43:49;18.90;99.90
3408;DHT22;1717;50.240;8.406;2023-08-07T15:46:16;18.90;99.90
3408;DHT22;1717;50.240;8.406;2023-08-07T15:48:43;19.00;99.90
3408;DHT22;1717;50.240;8.406;2023-08-07T15:51:10;19.00;99.90
3408;DHT22;1717;50.240;8.406;2023-08-07T15:53:37;19.00;99.90
3408;DHT22;1717;50.240;8.406;2023-08-07T15:56:05;19.00;99.10
3408;DHT22;1717;50.240;8.406;2023-08-07T15:58:32;19.00;98.90
3408;DHT22;1717;50.240;8.406;2023-08-07T16:00:59;19.10;98.70
3408;DHT22;1717;50.240;8.406;2023-08-07T16:03:26;19.10;98.20
3408;DHT22;1717;50.240;8.406;2023-08-07T16:05:53;19.10;99.00